Time;durP1;ratioP1;P1;durP2;ratioP2;P2;SDS_P1;SDS_P2;PMS_P1;PMS_P2;Temp;Humidity;BMP_temperature;BMP_pressure;BME280_temperature;BME280_humidity;BME280_pressure;Samples;Min_cycle;Max_cycle;Signal;HPM_P1;HPM_P2
2022/07/03 00:01:28;;;;;;;4.53;2.15;;;20.80;60.70;;;;;;5016320;28;20053;-63
2022/07/03 00:03:54;;;;;;;4.93;2.30;;;20.70;60.70;;;;;;5009873;28;20026;-64
2022/07/03 00:06:20;;;;;;;5.65;2.42;;;20.70;60.70;;;;;;5013268;28;20040;-64
2022/07/03 00:08:45;;;;;;;6.35;2.38;;;20.70;60.80;;;;;;5017157;28;20045;-63
2022/07/03 00:11:11;;;;;;;4.57;2.10;;;20.70;60.90;;;;;;5018727;28;20088;-63
2022/07/03 00:13:37;;;;;;;3.55;1.70;;;20.70;60.90;;;;;;5014002;28;20080;-64
2022/07/03 00:16:02;;;;;;;5.80;2.20;;;20.70;60.90;;;;;;5022248;28;20482;-64
2022/07/03 00:18:28;;;;;;;4.38;2.13;;;20.60;60.90;;;;;;5031310;28;20022;-63
2022/07/03 00:21:05;;;;;;;5.90;2.35;;;20.60;60.90;;;;;;5013773;28;20057;-64
2022/07/03 00:23:44;;;;;;;5.57;2.10;;;20.60;61.00;;;;;;5014026;28;20030;-64
2022/07/03 00:26:12;;;;;;;4.55;1.90;;;20.60;61.20;;;;;;5017482;28;20508;-63
2022/07/03 00:28:38;;;;;;;5.63;2.05;;;20.50;61.20;;;;;;5021508;28;20022;-63
2022/07/03 00:31:04;;;;;;;6.65;2.28;;;20.50;61.30;;;;;;5017964;28;20344;-63
2022/07/03 00:33:33;;;;;;;5.35;2.38;;;20.40;61.30;;;;;;5030975;28;20030;-63
2022/07/03 00:35:59;;;;;;;7.68;2.20;;;20.40;61.50;;;;;;5020102;28;20017;-63
2022/07/03 00:38:26;;;;;;;5.45;1.90;;;20.40;61.50;;;;;;5018621;28;21673;-63
2022/07/03 00:40:51;;;;;;;5.30;2.10;;;20.40;61.50;;;;;;5016526;28;20121;-64
2022/07/03 00:43:17;;;;;;;6.10;2.45;;;20.40;61.60;;;;;;5026966;28;20116;-63
2022/07/03 00:45:48;;;;;;;5.85;2.20;;;20.30;61.70;;;;;;5017453;28;20366;-63
2022/07/03 00:48:19;;;;;;;4.57;1.95;;;20.30;62.00;;;;;;5032826;28;20071;-63
2022/07/03 00:50:47;;;;;;;5.85;2.60;;;20.30;62.10;;;;;;5013332;28;20032;-64
2022/07/03 00:53:23;;;;;;;4.97;2.28;;;20.20;62.20;;;;;;5025343;28;20052;-63
2022/07/03 00:55:50;;;;;;;5.43;2.63;;;20.20;62.40;;;;;;5021837;28;20100;-63
2022/07/03 00:58:17;;;;;;;5.82;2.50;;;20.20;62.50;;;;;;5004411;28;20018;-63
2022/07/03 01:00:44;;;;;;;5.18;2.25;;;20.10;62.50;;;;;;5018726;28;20026;-63
2022/07/03 01:03:16;;;;;;;5.15;2.35;;;20.20;62.70;;;;;;5026213;28;20025;-64
2022/07/03 01:05:56;;;;;;;4.32;2.00;;;20.10;62.80;;;;;;5026882;28;20049;-64
2022/07/03 01:08:47;;;;;;;5.57;2.38;;;20.10;62.90;;;;;;5021920;28;20033;-64
2022/07/03 01:11:22;;;;;;;4.03;2.03;;;20.00;62.90;;;;;;5016173;28;20033;-63
2022/07/03 01:14:24;;;;;;;6.20;2.60;;;20.00;63.00;;;;;;5014429;28;20029;-63
2022/07/03 01:17:03;;;;;;;3.13;1.80;;;20.00;63.00;;;;;;5015269;28;20029;-63
2022/07/03 01:19:42;;;;;;;6.45;2.30;;;20.00;63.20;;;;;;5017082;28;20038;-64
2022/07/03 01:22:32;;;;;;;4.88;2.20;;;19.90;63.30;;;;;;5012144;28;20041;-63
2022/07/03 01:25:21;;;;;;;6.85;2.50;;;19.90;63.40;;;;;;5016933;28;20036;-64
2022/07/03 01:27:56;;;;;;;4.45;2.20;;;19.80;63.50;;;;;;5012491;28;20131;-64
2022/07/03 01:30:22;;;;;;;5.47;2.47;;;19.90;63.70;;;;;;5015384;28;20503;-64
2022/07/03 01:33:04;;;;;;;6.03;2.45;;;19.80;63.80;;;;;;5015674;28;20026;-63
2022/07/03 01:35:41;;;;;;;4.82;2.08;;;19.80;64.00;;;;;;5014992;28;20083;-64
2022/07/03 01:38:13;;;;;;;5.82;2.72;;;19.70;64.10;;;;;;5015842;28;20363;-63
2022/07/03 01:40:39;;;;;;;;;;;19.70;64.20;;;;;;5003761;28;20379;-64
2022/07/03 01:43:08;;;;;;;5.85;2.70;;;19.70;64.10;;;;;;5014954;28;19916;-63
2022/07/03 01:45:38;;;;;;;5.65;2.75;;;19.60;64.20;;;;;;5015616;28;20474;-63
2022/07/03 01:48:06;;;;;;;5.63;2.78;;;19.60;64.20;;;;;;5016427;28;20041;-63
2022/07/03 01:50:32;;;;;;;6.50;2.55;;;19.60;64.00;;;;;;5015163;28;20022;-64
2022/07/03 01:53:01;;;;;;;5.05;2.30;;;19.60;63.80;;;;;;5014297;28;20036;-63
2022/07/03 01:55:31;;;;;;;6.50;2.42;;;19.60;63.80;;;;;;5016460;28;20032;-64
2022/07/03 01:57:57;;;;;;;5.45;2.00;;;19.70;63.70;;;;;;5015668;28;20109;-64
2022/07/03 02:00:23;;;;;;;5.45;2.50;;;19.60;63.60;;;;;;5015314;28;20403;-64
2022/07/03 02:03:02;;;;;;;5.05;2.05;;;19.60;63.50;;;;;;5014537;28;20359;-64
2022/07/03 02:05:45;;;;;;;5.88;2.45;;;19.60;63.50;;;;;;5015676;28;20046;-64
2022/07/03 02:08:47;;;;;;;5.10;2.45;;;19.60;63.50;;;;;;5014783;28;20068;-64
2022/07/03 02:11:17;;;;;;;5.57;2.45;;;19.60;63.50;;;;;;5014996;28;20042;-64
2022/07/03 02:14:25;;;;;;;6.78;2.72;;;19.60;63.50;;;;;;5014979;28;20323;-62
2022/07/03 02:17:20;;;;;;;5.93;2.70;;;19.60;63.30;;;;;;4998289;28;20494;-61
2022/07/03 02:19:55;;;;;;;5.38;2.53;;;19.60;63.30;;;;;;4993064;28;20110;-63
2022/07/03 02:22:31;;;;;;;5.47;2.85;;;19.60;63.40;;;;;;5002199;28;20130;-63
2022/07/03 02:25:08;;;;;;;4.70;2.40;;;19.60;63.40;;;;;;4994745;28;20077;-63
2022/07/03 02:28:14;;;;;;;6.15;2.50;;;19.60;63.50;;;;;;5004268;28;20054;-63
2022/07/03 02:30:43;;;;;;;6.85;2.88;;;19.60;63.50;;;;;;4994244;28;20114;-63
2022/07/03 02:33:11;;;;;;;6.13;2.58;;;19.60;63.60;;;;;;4997545;28;20447;-63
2022/07/03 02:35:37;;;;;;;6.50;2.50;;;19.60;63.70;;;;;;4999710;28;20041;-63
2022/07/03 02:38:15;;;;;;;5.22;2.45;;;19.60;63.70;;;;;;4996441;28;20037;-62
2022/07/03 02:40:49;;;;;;;6.45;2.55;;;19.60;63.80;;;;;;4986243;28;20057;-63
2022/07/03 02:43:51;;;;;;;6.68;2.60;;;19.50;63.70;;;;;;4994575;28;20053;-63
2022/07/03 02:46:48;;;;;;;3.67;1.92;;;19.50;63.60;;;;;;5007167;28;20447;-63
2022/07/03 02:49:19;;;;;;;4.70;2.05;;;19.50;63.60;;;;;;5031180;28;20044;-63
2022/07/03 02:52:20;;;;;;;5.47;2.42;;;19.50;63.70;;;;;;5026175;28;20022;-63
2022/07/03 02:54:47;;;;;;;5.90;2.50;;;19.50;63.80;;;;;;5023930;28;20025;-64
2022/07/03 02:57:16;;;;;;;5.57;2.42;;;19.40;63.80;;;;;;5020856;28;20116;-61
2022/07/03 02:59:56;;;;;;;6.60;2.60;;;19.50;63.90;;;;;;5031950;28;20111;-63
2022/07/03 03:02:22;;;;;;;4.20;1.97;;;19.40;63.80;;;;;;5018278;28;20095;-62
2022/07/03 03:04:57;;;;;;;3.92;1.92;;;19.40;63.80;;;;;;5013095;28;20124;-62
2022/07/03 03:07:29;;;;;;;5.18;2.08;;;19.40;63.80;;;;;;5016696;28;20077;-63
2022/07/03 03:09:56;;;;;;;4.68;2.10;;;19.40;63.90;;;;;;5021010;28;20042;-62
2022/07/03 03:12:35;;;;;;;5.18;2.50;;;19.30;63.80;;;;;;5017861;28;20042;-62
2022/07/03 03:15:04;;;;;;;5.88;2.20;;;19.30;64.00;;;;;;5028668;28;20022;-63
2022/07/03 03:17:41;;;;;;;5.05;2.20;;;19.30;64.10;;;;;;5014477;28;20029;-62
2022/07/03 03:20:08;;;;;;;6.05;2.70;;;19.30;64.20;;;;;;5021467;28;20068;-63
2022/07/03 03:23:07;;;;;;;5.63;2.70;;;19.30;64.30;;;;;;5017253;28;20061;-63
2022/07/03 03:25:33;;;;;;;6.00;2.40;;;19.30;64.30;;;;;;5013819;28;20431;-63
2022/07/03 03:28:00;;;;;;;4.82;2.50;;;19.30;64.40;;;;;;5013183;28;20022;-63
2022/07/03 03:30:26;;;;;;;5.70;2.78;;;19.20;64.40;;;;;;5012566;28;20529;-63
2022/07/03 03:32:52;;;;;;;6.40;2.60;;;19.20;64.40;;;;;;5013697;28;20045;-64
2022/07/03 03:35:18;;;;;;;6.85;3.03;;;19.20;64.50;;;;;;5012224;28;20116;-63
2022/07/03 03:37:45;;;;;;;6.47;2.70;;;19.20;64.50;;;;;;4999943;28;20033;-63
2022/07/03 03:40:12;;;;;;;6.25;2.67;;;19.20;64.50;;;;;;5004422;28;20022;-61
2022/07/03 03:42:37;;;;;;;6.28;2.65;;;19.20;64.50;;;;;;5012360;28;20037;-63
2022/07/03 03:45:03;;;;;;;5.90;2.50;;;19.20;64.50;;;;;;5013273;28;20033;-62
2022/07/03 03:47:29;;;;;;;7.13;2.40;;;19.20;64.40;;;;;;5012982;28;20022;-62
2022/07/03 03:49:55;;;;;;;4.72;2.25;;;19.30;64.30;;;;;;5014103;28;20079;-62
2022/07/03 03:52:21;;;;;;;6.50;2.53;;;19.30;64.30;;;;;;5012621;28;20449;-62
2022/07/03 03:54:46;;;;;;;5.15;2.60;;;19.30;64.30;;;;;;5013520;28;20449;-62
2022/07/03 03:57:30;;;;;;;5.68;2.28;;;19.30;64.30;;;;;;5011543;28;20034;-62
2022/07/03 03:59:56;;;;;;;5.40;2.30;;;19.30;64.30;;;;;;5012114;28;20026;-62
2022/07/03 04:02:22;;;;;;;4.63;1.92;;;19.30;64.30;;;;;;5007456;28;20037;-62
2022/07/03 04:04:48;;;;;;;5.68;2.50;;;19.40;64.40;;;;;;5013479;28;20018;-62
2022/07/03 04:07:14;;;;;;;5.72;2.42;;;19.40;64.30;;;;;;5013148;28;20359;-62
2022/07/03 04:09:39;;;;;;;7.32;2.55;;;19.40;64.30;;;;;;5011570;28;20351;-62
2022/07/03 04:12:05;;;;;;;6.28;2.22;;;19.40;64.30;;;;;;5014399;28;20037;-62
2022/07/03 04:14:31;;;;;;;4.50;2.20;;;19.40;64.30;;;;;;5011383;28;20166;-62
2022/07/03 04:16:57;;;;;;;5.18;2.60;;;19.40;64.40;;;;;;5013888;28;20065;-62
2022/07/03 04:19:23;;;;;;;5.53;2.45;;;19.40;64.50;;;;;;5012573;28;20029;-62
2022/07/03 04:21:51;;;;;;;5.50;2.50;;;19.50;64.60;;;;;;5011805;28;20041;-64
2022/07/03 04:24:17;;;;;;;7.78;3.13;;;19.40;64.70;;;;;;5012616;28;20109;-62
2022/07/03 04:26:43;;;;;;;6.18;2.65;;;19.50;64.90;;;;;;5014437;28;20022;-62
2022/07/03 04:29:09;;;;;;;6.20;2.72;;;19.40;65.70;;;;;;5013502;28;20452;-62
2022/07/03 04:31:34;;;;;;;5.88;2.85;;;19.50;65.30;;;;;;5018217;28;20117;-62
2022/07/03 04:34:00;;;;;;;7.07;3.20;;;19.40;65.30;;;;;;5016615;28;20477;-62
2022/07/03 04:36:26;;;;;;;6.78;3.10;;;19.40;65.50;;;;;;5017557;28;20034;-62
2022/07/03 04:38:51;;;;;;;6.63;3.13;;;19.40;65.50;;;;;;5016776;28;20026;-62
2022/07/03 04:41:17;;;;;;;6.28;3.17;;;19.40;65.70;;;;;;5017743;28;20028;-63
2022/07/03 04:43:43;;;;;;;6.85;2.97;;;19.40;65.80;;;;;;5017115;28;20470;-63
2022/07/03 04:46:09;;;;;;;5.43;2.80;;;19.40;65.90;;;;;;5018054;28;20030;-63
2022/07/03 04:48:34;;;;;;;7.60;3.42;;;19.40;66.00;;;;;;5016097;28;20121;-63
2022/07/03 04:51:00;;;;;;;5.45;2.67;;;19.30;66.00;;;;;;5016877;28;20030;-63
2022/07/03 04:53:26;;;;;;;6.80;3.13;;;19.30;66.10;;;;;;5014065;28;20180;-63
2022/07/03 04:55:52;;;;;;;7.82;3.45;;;19.30;66.10;;;;;;5017431;28;20096;-63
2022/07/03 04:58:18;;;;;;;7.85;2.72;;;19.30;66.20;;;;;;5011466;28;20351;-63
2022/07/03 05:00:45;;;;;;;7.35;2.90;;;19.30;66.10;;;;;;5018128;28;20021;-62
2022/07/03 05:03:11;;;;;;;5.47;2.75;;;19.30;66.20;;;;;;5017673;28;20030;-63
2022/07/03 05:05:37;;;;;;;8.27;3.25;;;19.40;66.30;;;;;;5016356;28;20355;-62
2022/07/03 05:08:03;;;;;;;6.75;2.75;;;19.40;66.30;;;;;;5018189;28;20034;-62
2022/07/03 05:10:28;;;;;;;5.50;2.88;;;19.50;66.30;;;;;;5016539;28;20068;-62
2022/07/03 05:12:54;;;;;;;6.30;2.95;;;19.60;66.20;;;;;;5017155;28;20029;-62
2022/07/03 05:15:20;;;;;;;7.35;2.95;;;19.70;66.10;;;;;;5007698;28;20029;-63
2022/07/03 05:17:46;;;;;;;10.05;3.42;;;20.50;64.60;;;;;;5024405;28;20030;-63
2022/07/03 05:20:24;;;;;;;7.47;3.22;;;21.40;62.20;;;;;;5018355;28;20093;-62
2022/07/03 05:22:53;;;;;;;5.40;2.65;;;21.60;61.50;;;;;;5016708;28;20026;-62
2022/07/03 05:25:20;;;;;;;8.05;2.90;;;21.50;61.70;;;;;;5015119;28;20364;-62
2022/07/03 05:27:46;;;;;;;4.95;2.50;;;21.40;61.90;;;;;;5016888;28;20537;-63
2022/07/03 05:30:12;;;;;;;5.57;2.30;;;21.30;61.90;;;;;;5015744;28;20037;-63
2022/07/03 05:32:38;;;;;;;7.57;2.58;;;21.30;62.10;;;;;;5015273;28;20458;-64
2022/07/03 05:35:05;;;;;;;4.93;2.55;;;21.10;62.40;;;;;;5014175;28;20037;-63
2022/07/03 05:37:30;;;;;;;4.78;2.00;;;21.10;62.60;;;;;;5015947;28;20425;-64
2022/07/03 05:39:56;;;;;;;6.45;2.30;;;21.00;62.70;;;;;;5016317;28;20058;-64
2022/07/03 05:42:22;;;;;;;6.13;2.60;;;21.10;62.70;;;;;;5016663;28;20355;-64
2022/07/03 05:44:47;;;;;;;6.70;2.47;;;21.10;62.80;;;;;;5028689;28;20069;-64
2022/07/03 05:47:13;;;;;;;6.45;2.72;;;21.00;62.80;;;;;;5015123;28;20420;-64
2022/07/03 05:49:39;;;;;;;6.10;2.70;;;20.90;62.80;;;;;;5015329;28;20105;-64
2022/07/03 05:52:05;;;;;;;6.28;2.45;;;20.90;63.10;;;;;;5015029;28;20755;-64
2022/07/03 05:54:30;;;;;;;7.13;2.85;;;20.80;63.20;;;;;;5014964;28;20076;-64
2022/07/03 05:56:56;;;;;;;7.30;2.67;;;20.70;63.30;;;;;;5015272;28;20030;-64
2022/07/03 05:59:22;;;;;;;6.28;2.95;;;20.70;64.10;;;;;;5014958;28;20029;-64
2022/07/03 06:01:47;;;;;;;7.18;2.92;;;20.80;63.20;;;;;;5014437;28;20493;-63
2022/07/03 06:04:13;;;;;;;7.72;2.78;;;20.90;62.80;;;;;;5015051;28;20033;-64
2022/07/03 06:06:39;;;;;;;6.38;2.70;;;21.00;62.50;;;;;;5011513;28;20061;-64
2022/07/03 06:09:05;;;;;;;6.78;2.80;;;21.20;62.30;;;;;;5013838;28;20046;-64
2022/07/03 06:11:30;;;;;;;5.47;2.58;;;21.30;61.90;;;;;;5014530;28;20440;-64
2022/07/03 06:13:56;;;;;;;6.40;2.95;;;21.40;61.60;;;;;;5014770;28;20137;-64
2022/07/03 06:16:22;;;;;;;5.72;2.60;;;21.60;61.40;;;;;;5017854;28;20358;-63
2022/07/03 06:18:49;;;;;;;5.55;2.72;;;21.60;61.10;;;;;;5014537;28;20483;-64
2022/07/03 06:21:15;;;;;;;6.05;2.55;;;21.80;60.80;;;;;;5014412;28;20018;-64
2022/07/03 06:23:40;;;;;;;6.55;2.33;;;22.00;60.70;;;;;;5013547;28;20030;-65
2022/07/03 06:26:06;;;;;;;4.25;1.95;;;22.10;60.40;;;;;;5014099;28;20033;-64
2022/07/03 06:28:32;;;;;;;5.50;1.98;;;22.10;60.00;;;;;;5012034;28;20095;-65
2022/07/03 06:30:58;;;;;;;5.68;2.05;;;22.10;60.00;;;;;;5007304;28;20037;-64
2022/07/03 06:33:23;;;;;;;6.75;2.25;;;22.00;60.00;;;;;;5008008;28;20184;-64
2022/07/03 06:35:49;;;;;;;5.50;2.30;;;22.00;60.00;;;;;;5013909;28;20030;-63
2022/07/03 06:38:17;;;;;;;4.38;1.63;;;22.20;59.90;;;;;;5013203;28;20022;-64
2022/07/03 06:40:43;;;;;;;4.43;2.05;;;22.30;59.60;;;;;;5012820;28;20028;-64
2022/07/03 06:43:09;;;;;;;6.18;1.98;;;22.40;59.40;;;;;;5015658;28;20030;-63
2022/07/03 06:45:34;;;;;;;4.55;1.77;;;22.50;59.20;;;;;;5013788;28;20079;-63
2022/07/03 06:48:00;;;;;;;4.07;1.80;;;22.70;59.00;;;;;;5014545;28;20359;-63
2022/07/03 06:50:25;;;;;;;4.03;1.58;;;22.80;58.80;;;;;;5010080;28;20026;-64
2022/07/03 06:52:51;;;;;;;3.47;1.27;;;22.90;58.50;;;;;;5013802;28;20030;-63
2022/07/03 06:55:17;;;;;;;4.88;1.60;;;23.10;58.30;;;;;;5014513;28;20459;-64
2022/07/03 06:57:43;;;;;;;8.30;1.98;;;23.00;58.20;;;;;;5015468;28;20108;-62
2022/07/03 07:00:09;;;;;;;3.88;1.67;;;23.10;58.10;;;;;;5012478;28;20114;-62
2022/07/03 07:02:35;;;;;;;5.63;1.60;;;23.20;57.90;;;;;;5014732;28;20044;-62
2022/07/03 07:05:00;;;;;;;6.03;1.65;;;23.30;57.70;;;;;;5013402;28;20030;-62
2022/07/03 07:07:26;;;;;;;4.22;1.65;;;23.40;57.50;;;;;;5014566;28;20038;-63
2022/07/03 07:09:52;;;;;;;4.35;1.30;;;23.50;57.30;;;;;;5012903;28;20077;-62
2022/07/03 07:12:18;;;;;;;5.28;1.35;;;23.60;57.10;;;;;;5014303;28;20092;-63
2022/07/03 07:14:43;;;;;;;2.97;1.10;;;23.70;56.90;;;;;;5021814;28;20036;-63
2022/07/03 07:17:09;;;;;;;6.00;1.42;;;23.90;56.60;;;;;;5035085;28;20033;-64
2022/07/03 07:19:35;;;;;;;6.28;1.33;;;24.00;56.30;;;;;;5026903;28;20038;-63
2022/07/03 07:22:01;;;;;;;4.78;1.50;;;24.10;55.70;;;;;;5014822;28;20030;-62
2022/07/03 07:24:29;;;;;;;5.07;1.50;;;24.20;55.40;;;;;;5010031;28;20108;-63
2022/07/03 07:26:55;;;;;;;3.58;1.27;;;24.40;55.30;;;;;;5010030;28;20095;-64
2022/07/03 07:29:21;;;;;;;5.32;1.33;;;24.50;55.70;;;;;;5010024;28;20030;-63
2022/07/03 07:31:46;;;;;;;4.88;1.40;;;24.70;54.70;;;;;;4997308;28;20026;-63
2022/07/03 07:34:13;;;;;;;5.15;1.30;;;24.80;54.30;;;;;;5009837;28;20033;-63
2022/07/03 07:36:38;;;;;;;3.80;1.33;;;24.90;54.60;;;;;;5009443;28;20052;-63
2022/07/03 07:39:04;;;;;;;3.17;1.30;;;25.00;53.80;;;;;;5006476;28;20395;-64
2022/07/03 07:41:30;;;;;;;4.60;1.70;;;25.10;53.60;;;;;;5023423;28;20523;-63
2022/07/03 07:43:56;;;;;;;4.75;1.42;;;25.30;53.40;;;;;;5008972;28;20029;-63
2022/07/03 07:46:21;;;;;;;4.03;1.30;;;25.40;53.30;;;;;;5009077;28;20127;-63
2022/07/03 07:48:47;;;;;;;5.45;1.75;;;25.50;53.00;;;;;;5010062;28;20432;-66
2022/07/03 07:51:13;;;;;;;5.57;1.63;;;25.70;52.90;;;;;;5008407;28;20363;-63
2022/07/03 07:53:38;;;;;;;5.53;1.60;;;25.80;52.60;;;;;;5007004;28;20029;-64
2022/07/03 07:56:04;;;;;;;3.58;1.17;;;25.80;52.30;;;;;;5008719;28;20034;-63
2022/07/03 07:58:30;;;;;;;4.82;1.30;;;25.90;52.20;;;;;;5020870;28;20501;-63
2022/07/03 08:06:24;;;;;;;4.72;1.38;;;25.90;51.40;;;;;;5011778;28;20458;-64
2022/07/03 08:08:49;;;;;;;3.72;1.20;;;25.90;51.30;;;;;;5012594;28;20038;-64
2022/07/03 08:11:15;;;;;;;3.55;1.02;;;26.00;51.30;;;;;;5010757;28;20022;-64
2022/07/03 08:13:42;;;;;;;6.07;1.30;;;26.20;51.10;;;;;;5012210;28;20022;-64
2022/07/03 08:16:07;;;;;;;2.53;1.00;;;26.20;50.80;;;;;;5012254;28;20048;-65
2022/07/03 08:18:33;;;;;;;5.28;1.20;;;26.20;50.80;;;;;;5011294;28;20084;-65
2022/07/03 08:20:58;;;;;;;2.80;1.20;;;26.30;50.80;;;;;;5013672;28;20359;-65
2022/07/03 08:23:24;;;;;;;4.20;1.30;;;26.40;50.70;;;;;;5013972;28;20411;-64
2022/07/03 08:25:50;;;;;;;4.22;1.30;;;26.40;50.50;;;;;;5015118;28;20405;-66
2022/07/03 08:28:15;;;;;;;2.95;1.20;;;26.40;50.50;;;;;;5012223;28;20049;-65
2022/07/03 08:30:41;;;;;;;3.22;1.17;;;26.50;50.40;;;;;;5003134;28;20045;-65
2022/07/03 08:33:07;;;;;;;2.63;0.93;;;26.60;50.10;;;;;;5011541;28;20367;-65
2022/07/03 08:35:32;;;;;;;3.35;1.20;;;26.60;50.00;;;;;;5012020;28;20362;-65
2022/07/03 08:37:58;;;;;;;3.97;1.48;;;26.80;49.80;;;;;;5010801;28;20026;-67
2022/07/03 08:40:24;;;;;;;4.90;1.20;;;26.80;49.50;;;;;;5013373;28;20024;-67
2022/07/03 08:42:58;;;;;;;5.70;1.33;;;26.90;49.30;;;;;;5011433;28;20022;-66
2022/07/03 08:45:25;;;;;;;5.25;1.30;;;26.90;49.00;;;;;;5011691;28;20038;-65
2022/07/03 08:47:54;;;;;;;3.05;0.95;;;27.00;48.90;;;;;;5011479;28;20165;-65
2022/07/03 08:50:20;;;;;;;4.85;1.20;;;27.00;48.80;;;;;;5011211;28;20132;-65
2022/07/03 08:52:47;;;;;;;2.63;1.10;;;27.10;48.80;;;;;;5010997;28;20037;-65
2022/07/03 08:55:15;;;;;;;5.18;1.25;;;27.20;48.70;;;;;;5010812;28;20041;-65
2022/07/03 08:57:42;;;;;;;4.43;1.23;;;27.30;48.40;;;;;;5011396;28;20076;-66
2022/07/03 09:00:11;;;;;;;4.15;1.10;;;27.40;47.90;;;;;;5009756;28;20156;-65
2022/07/03 09:02:39;;;;;;;2.72;1.20;;;27.60;47.70;;;;;;5016931;28;20025;-65
2022/07/03 09:05:06;;;;;;;5.43;1.30;;;27.50;47.10;;;;;;5014181;28;20030;-66
2022/07/03 09:07:36;;;;;;;3.58;1.40;;;27.50;46.90;;;;;;5007332;28;20049;-66
2022/07/03 09:10:04;;;;;;;2.27;1.07;;;27.60;46.50;;;;;;5012608;28;20057;-66
2022/07/03 09:12:31;;;;;;;3.25;1.00;;;27.60;46.20;;;;;;5010534;28;20415;-66
2022/07/03 09:14:58;;;;;;;3.13;1.48;;;27.60;45.70;;;;;;5011936;28;20030;-66
2022/07/03 09:17:23;;;;;;;4.43;1.10;;;27.70;45.70;;;;;;5009826;28;20083;-66
2022/07/03 09:19:49;;;;;;;3.28;1.30;;;27.70;45.70;;;;;;5015261;28;20018;-66
2022/07/03 09:22:24;;;;;;;3.53;1.42;;;27.80;45.70;;;;;;5013025;28;20112;-65
2022/07/03 09:24:52;;;;;;;2.50;1.00;;;27.80;45.70;;;;;;5009818;28;20022;-65
2022/07/03 09:27:20;;;;;;;3.40;1.30;;;28.00;45.80;;;;;;5016947;28;20053;-65
2022/07/03 09:30:09;;;;;;;2.40;0.90;;;28.20;45.30;;;;;;5017341;28;20459;-66
2022/07/03 09:32:38;;;;;;;2.38;0.93;;;28.20;44.70;;;;;;5016350;28;20061;-65
2022/07/03 09:35:23;;;;;;;2.90;1.02;;;28.10;44.80;;;;;;5017587;28;20051;-65
2022/07/03 09:38:02;;;;;;;2.67;1.10;;;28.20;44.70;;;;;;5017405;28;20033;-65
2022/07/03 09:40:47;;;;;;;1.88;0.93;;;28.10;44.90;;;;;;5016430;28;20467;-65
2022/07/03 09:43:13;;;;;;;2.67;0.90;;;28.00;45.30;;;;;;5016367;28;20112;-65
2022/07/03 09:45:50;;;;;;;2.58;0.80;;;27.90;45.60;;;;;;5032334;28;20116;-67
2022/07/03 09:48:33;;;;;;;3.97;1.20;;;27.90;45.50;;;;;;5011956;28;20100;-65
2022/07/03 09:51:26;;;;;;;5.30;1.40;;;27.50;45.90;;;;;;4997670;28;20026;-65
2022/07/03 09:54:02;;;;;;;2.95;1.15;;;27.60;46.00;;;;;;5023704;28;20026;-65
2022/07/03 09:56:33;;;;;;;2.70;0.95;;;27.80;45.80;;;;;;5008435;28;20451;-65
2022/07/03 09:59:14;;;;;;;3.03;1.20;;;28.00;45.60;;;;;;5011667;28;20427;-65
2022/07/03 10:01:44;;;;;;;4.22;1.45;;;28.20;45.50;;;;;;5011455;28;20509;-66
2022/07/03 10:04:14;;;;;;;1.98;0.90;;;28.40;45.60;;;;;;5015439;28;20133;-65
2022/07/03 10:06:58;;;;;;;3.83;1.15;;;28.50;45.70;;;;;;5016562;28;20104;-66
2022/07/03 10:09:28;;;;;;;2.45;1.10;;;28.30;45.80;;;;;;5016259;28;20478;-65
2022/07/03 10:11:55;;;;;;;5.22;1.25;;;28.20;46.20;;;;;;5015407;28;20041;-65
2022/07/03 10:14:23;;;;;;;1.85;0.85;;;28.20;46.40;;;;;;5018092;28;20030;-65
2022/07/03 10:16:49;;;;;;;2.45;1.10;;;28.20;46.30;;;;;;5033167;28;20060;-65
2022/07/03 10:19:22;;;;;;;2.42;1.13;;;28.30;46.30;;;;;;5018497;28;20026;-65
2022/07/03 10:21:54;;;;;;;3.10;1.10;;;28.30;46.30;;;;;;5014447;28;20040;-66
2022/07/03 10:24:24;;;;;;;2.35;1.05;;;28.00;46.40;;;;;;5015221;28;20108;-66
2022/07/03 10:26:51;;;;;;;2.25;0.95;;;28.00;46.50;;;;;;5012580;28;20129;-63
2022/07/03 10:29:21;;;;;;;3.45;1.10;;;28.00;46.60;;;;;;5015748;28;20040;-64
2022/07/03 10:31:47;;;;;;;2.45;1.00;;;28.10;46.50;;;;;;5013885;28;20447;-65
2022/07/03 10:34:17;;;;;;;3.90;1.17;;;28.20;46.20;;;;;;5015111;28;20037;-64
2022/07/03 10:36:44;;;;;;;3.20;1.00;;;28.30;45.90;;;;;;5015502;28;20446;-65
2022/07/03 10:39:17;;;;;;;2.35;1.00;;;28.30;45.90;;;;;;5014740;28;20026;-65
2022/07/03 10:44:47;;;;;;;4.00;1.13;;;28.00;45.80;;;;;;5013649;28;20616;-64
2022/07/03 10:47:40;;;;;;;3.15;1.10;;;27.80;46.00;;;;;;5013070;28;20030;-64
2022/07/03 10:50:11;;;;;;;3.83;1.33;;;27.90;46.00;;;;;;5014981;28;20564;-64
2022/07/03 10:52:37;;;;;;;4.47;1.20;;;28.00;45.80;;;;;;5011863;28;20370;-64
2022/07/03 10:55:06;;;;;;;1.88;0.93;;;28.20;45.70;;;;;;5015363;28;20403;-65
2022/07/03 10:57:32;;;;;;;3.55;1.08;;;28.40;45.50;;;;;;5014418;28;20021;-65
2022/07/03 11:00:00;;;;;;;4.80;1.17;;;28.50;45.20;;;;;;5014919;28;20030;-64
2022/07/03 11:02:40;;;;;;;4.90;1.10;;;28.60;45.00;;;;;;5006813;28;20088;-65
2022/07/03 11:05:09;;;;;;;6.03;1.00;;;28.70;45.00;;;;;;5013059;28;20025;-65
2022/07/03 11:07:50;;;;;;;2.63;1.35;;;28.70;44.90;;;;;;5014453;28;20032;-65
2022/07/03 11:10:16;;;;;;;2.97;1.27;;;28.80;45.30;;;;;;5013059;28;20038;-64
2022/07/03 11:13:00;;;;;;;1.98;0.98;;;28.50;45.40;;;;;;5012284;28;20030;-65
2022/07/03 11:15:42;;;;;;;3.88;1.17;;;28.50;45.60;;;;;;5016634;28;20029;-65
2022/07/03 11:18:33;;;;;;;1.73;0.80;;;28.60;45.50;;;;;;5018336;28;20026;-65
2022/07/03 11:21:11;;;;;;;4.45;1.20;;;28.60;45.20;;;;;;5025874;28;20045;-65
2022/07/03 11:24:03;;;;;;;1.48;0.80;;;28.60;45.20;;;;;;5025183;28;20053;-65
2022/07/03 11:26:29;;;;;;;2.72;1.10;;;28.70;45.00;;;;;;4999565;28;20113;-66
2022/07/03 11:28:55;;;;;;;2.10;0.70;;;28.70;44.80;;;;;;5018724;28;20056;-65
2022/07/03 11:31:23;;;;;;;3.50;1.10;;;28.70;44.70;;;;;;5021900;28;20037;-67
2022/07/03 11:33:51;;;;;;;3.70;1.13;;;28.60;44.60;;;;;;5023695;28;20503;-67
2022/07/03 11:36:17;;;;;;;3.30;1.10;;;28.40;44.80;;;;;;5016725;28;20026;-67
2022/07/03 11:38:43;;;;;;;1.90;1.10;;;28.30;45.10;;;;;;5011763;28;20091;-68
2022/07/03 11:41:11;;;;;;;3.13;1.00;;;28.20;45.00;;;;;;5011655;28;20097;-68
2022/07/03 11:43:37;;;;;;;3.63;1.13;;;27.90;45.00;;;;;;5011741;28;20513;-68
2022/07/03 11:46:04;;;;;;;2.80;0.90;;;27.90;44.90;;;;;;5013256;28;20038;-68
2022/07/03 11:48:31;;;;;;;3.45;1.27;;;28.10;44.70;;;;;;5012502;28;20125;-68
2022/07/03 11:51:04;;;;;;;2.25;1.00;;;28.30;44.60;;;;;;5009152;28;20100;-68
2022/07/03 11:53:32;;;;;;;3.30;1.17;;;28.50;44.50;;;;;;5009403;28;20028;-68
2022/07/03 11:56:07;;;;;;;3.03;1.13;;;28.50;44.40;;;;;;5013875;28;20098;-68
2022/07/03 11:58:50;;;;;;;1.98;0.90;;;28.40;44.10;;;;;;5015942;28;20033;-68
2022/07/03 12:01:21;;;;;;;3.42;1.08;;;28.30;44.20;;;;;;5012020;28;20026;-69
2022/07/03 12:03:48;;;;;;;2.50;1.10;;;28.20;44.00;;;;;;5012580;28;20463;-68
2022/07/03 12:06:13;;;;;;;1.77;0.95;;;28.20;43.80;;;;;;5013176;28;20045;-68
2022/07/03 12:08:45;;;;;;;1.67;1.00;;;28.10;43.80;;;;;;5012743;28;20471;-68
2022/07/03 12:11:13;;;;;;;1.55;0.90;;;28.00;43.90;;;;;;5010712;28;20026;-68
2022/07/03 12:13:39;;;;;;;1.35;0.80;;;28.00;43.70;;;;;;4993882;28;20198;-68
2022/07/03 12:16:09;;;;;;;2.42;0.98;;;28.00;43.60;;;;;;5015484;28;20022;-68
2022/07/03 12:18:53;;;;;;;2.85;0.95;;;28.00;43.60;;;;;;5016061;28;20064;-68
2022/07/03 12:21:23;;;;;;;3.25;1.15;;;28.00;43.60;;;;;;5019037;28;20034;-68
2022/07/03 12:23:51;;;;;;;1.75;1.00;;;27.80;44.00;;;;;;5012025;28;20084;-68
2022/07/03 12:26:34;;;;;;;2.45;1.05;;;27.60;44.30;;;;;;5012214;28;20037;-68
2022/07/03 12:29:12;;;;;;;1.85;0.88;;;27.30;44.40;;;;;;5027514;28;20430;-68
2022/07/03 12:31:43;;;;;;;4.47;1.30;;;27.20;44.80;;;;;;5012176;28;20052;-68
2022/07/03 12:34:10;;;;;;;1.55;1.00;;;27.00;44.50;;;;;;5012783;28;20034;-68
2022/07/03 12:36:36;;;;;;;2.58;1.10;;;26.90;44.70;;;;;;5014790;28;20106;-69
2022/07/03 12:39:03;;;;;;;2.63;0.98;;;26.90;44.90;;;;;;5011085;28;20042;-70
2022/07/03 12:41:29;;;;;;;1.73;0.90;;;27.00;44.70;;;;;;5025728;28;20029;-69
2022/07/03 12:43:57;;;;;;;2.78;1.10;;;26.90;44.50;;;;;;5013618;28;20036;-69
2022/07/03 12:46:32;;;;;;;1.83;0.85;;;26.90;44.70;;;;;;5015381;28;20364;-69
2022/07/03 12:49:00;;;;;;;2.50;0.93;;;26.90;44.90;;;;;;5014312;28;20030;-69
2022/07/03 12:51:39;;;;;;;2.60;1.10;;;26.90;44.70;;;;;;5014031;28;20041;-67
2022/07/03 12:54:05;;;;;;;2.85;1.13;;;26.90;44.50;;;;;;5017095;28;20038;-66
2022/07/03 12:56:31;;;;;;;2.47;1.02;;;26.90;44.60;;;;;;5015916;28;20021;-66
2022/07/03 13:01:42;;;;;;;3.05;1.00;;;26.80;44.70;;;;;;5016836;28;20030;-67
2022/07/03 13:04:13;;;;;;;3.33;1.10;;;26.60;44.90;;;;;;5018323;28;20080;-68
2022/07/03 13:06:41;;;;;;;2.63;1.13;;;26.60;45.20;;;;;;5016040;28;20021;-67
2022/07/03 13:09:07;;;;;;;2.95;1.10;;;26.60;45.20;;;;;;5016161;28;20058;-67
2022/07/03 13:11:38;;;;;;;3.47;1.08;;;26.60;45.00;;;;;;5014832;28;20049;-67
2022/07/03 13:14:15;;;;;;;4.80;1.50;;;26.40;45.00;;;;;;5026639;28;20128;-67